Time;durP1;ratioP1;P1;durP2;ratioP2;P2;SDS_P1;SDS_P2;PMS_P1;PMS_P2;Temp;Humidity;BMP_temperature;BMP_pressure;BME280_temperature;BME280_humidity;BME280_pressure;Samples;Min_cycle;Max_cycle;Signal;HPM_P1;HPM_P2
2023/02/21 02:16:06;;;;;;;1.20;1.10;;;4.20;99.90;;;;;;5049835;28;20533;-71
2023/02/21 02:19:00;;;;;;;2.10;1.13;;;4.30;99.90;;;;;;5050199;28;20479;-71
2023/02/21 02:21:54;;;;;;;1.90;1.57;;;4.40;99.90;;;;;;5039471;28;20633;-70
2023/02/21 02:25:06;;;;;;;4.50;1.30;;;4.30;1.00;;;;;;5050541;28;20451;-70
2023/02/21 02:27:57;;;;;;;1.20;1.10;;;4.40;99.90;;;;;;5014225;28;20463;-70
2023/02/21 02:31:05;;;;;;;1.30;1.20;;;4.50;99.90;;;;;;5049691;28;20944;-71
2023/02/21 02:34:14;;;;;;;1.30;1.03;;;4.40;99.90;;;;;;5043316;28;20459;-70
2023/02/21 02:36:44;;;;;;;3.90;1.23;;;4.40;99.90;;;;;;5049417;28;20886;-70
2023/02/21 02:39:21;;;;;;;1.00;0.70;;;4.40;99.90;;;;;;5049686;28;20811;-70
2023/02/21 02:41:57;;;;;;;1.50;0.67;;;4.50;93.90;;;;;;5049558;28;20449;-70
2023/02/21 02:44:29;;;;;;;1.13;0.80;;;4.30;99.90;;;;;;5050534;28;20443;-70
2023/02/21 02:47:00;;;;;;;1.17;0.70;;;4.10;1.00;;;;;;5049270;28;20470;-70
2023/02/21 02:49:29;;;;;;;3.00;1.80;;;4.00;1.00;;;;;;5050136;28;20450;-70
2023/02/21 02:52:03;;;;;;;4.53;0.80;;;4.10;1.00;;;;;;5049935;28;20445;-71
2023/02/21 02:54:31;;;;;;;2.47;1.40;;;4.10;30.60;;;;;;5050692;28;20438;-70
2023/02/21 02:56:58;;;;;;;1.43;1.10;;;4.30;1.00;;;;;;5049294;28;20939;-70
2023/02/21 02:59:28;;;;;;;1.27;1.00;;;4.30;1.00;;;;;;5049725;28;20446;-71
2023/02/21 03:02:33;;;;;;;1.40;0.90;;;4.40;1.00;;;;;;5049208;28;20565;-71
2023/02/21 03:05:15;;;;;;;1.30;0.90;;;4.30;1.00;;;;;;5040693;28;20467;-71
2023/02/21 03:07:53;;;;;;;0.80;0.80;;;4.20;1.00;;;;;;5049127;28;20454;-71
2023/02/21 03:10:27;;;;;;;3.57;1.63;;;4.10;65.50;;;;;;5049234;28;20444;-70
2023/02/21 03:13:02;;;;;;;0.80;0.80;;;3.90;4.30;;;;;;5048394;28;20936;-70
2023/02/21 03:15:35;;;;;;;3.53;1.13;;;4.00;1.00;;;;;;5050381;28;20457;-70
2023/02/21 03:18:09;;;;;;;4.00;1.23;;;4.00;1.00;;;;;;5049673;28;20462;-70
2023/02/21 03:20:38;;;;;;;1.70;1.30;;;3.90;85.70;;;;;;5055369;28;20441;-70
2023/02/21 03:23:07;;;;;;;1.70;0.90;;;4.10;99.90;;;;;;5053705;28;20450;-71
2023/02/21 03:25:37;;;;;;;2.50;1.40;;;4.20;99.90;;;;;;5054409;28;20843;-70
2023/02/21 03:28:04;;;;;;;3.47;1.20;;;4.00;99.90;;;;;;5053113;28;21047;-71
2023/02/21 03:30:31;;;;;;;4.10;1.33;;;3.90;99.90;;;;;;5053482;28;20903;-71
2023/02/21 03:32:58;;;;;;;2.33;0.70;;;3.80;1.00;;;;;;5053135;28;20446;-70
2023/02/21 03:35:29;;;;;;;1.47;0.80;;;3.80;99.90;;;;;;5053947;28;20453;-71
2023/02/21 03:37:57;;;;;;;1.10;0.80;;;3.80;32.00;;;;;;5053397;28;20453;-71
2023/02/21 03:40:28;;;;;;;3.07;1.87;;;3.90;99.90;;;;;;5053453;28;20461;-70
2023/02/21 03:42:56;;;;;;;2.17;1.33;;;4.10;1.00;;;;;;5052915;28;20453;-70
2023/02/21 03:45:23;;;;;;;1.87;1.17;;;3.90;1.00;;;;;;5053594;28;20496;-71
2023/02/21 03:47:50;;;;;;;2.00;0.90;;;4.00;1.00;;;;;;5053384;28;20483;-70
2023/02/21 03:50:17;;;;;;;1.60;1.10;;;4.00;99.90;;;;;;5053116;28;20446;-70
2023/02/21 03:52:44;;;;;;;3.63;1.30;;;3.90;1.00;;;;;;5053195;28;20462;-71
2023/02/21 03:55:11;;;;;;;4.53;1.70;;;3.80;99.90;;;;;;5053295;28;20449;-70
2023/02/21 03:57:39;;;;;;;2.40;1.30;;;3.70;1.00;;;;;;5053635;28;20456;-71
2023/02/21 04:00:07;;;;;;;1.00;0.80;;;3.90;1.00;;;;;;5053025;28;20445;-70
2023/02/21 04:02:34;;;;;;;2.20;1.27;;;3.90;99.90;;;;;;5053564;28;20815;-70
2023/02/21 04:05:01;;;;;;;2.27;0.80;;;4.00;1.00;;;;;;5052904;28;20709;-70
2023/02/21 04:07:28;;;;;;;0.80;0.80;;;3.90;99.90;;;;;;5053093;28;20505;-70
2023/02/21 04:09:55;;;;;;;1.60;1.10;;;3.80;99.90;;;;;;5052330;28;20471;-70
2023/02/21 04:12:22;;;;;;;0.93;0.83;;;3.70;99.90;;;;;;5052872;28;20453;-71
2023/02/21 04:14:51;;;;;;;2.70;0.87;;;4.00;99.90;;;;;;5052504;28;20451;-71
2023/02/21 04:17:18;;;;;;;1.00;0.80;;;3.90;99.90;;;;;;5052939;28;20453;-70
2023/02/21 04:19:44;;;;;;;1.10;0.80;;;3.80;1.00;;;;;;5052030;28;20457;-70
2023/02/21 04:22:11;;;;;;;0.80;0.70;;;3.70;1.00;;;;;;5052734;28;20469;-70
2023/02/21 04:24:38;;;;;;;2.77;0.87;;;3.80;1.00;;;;;;5053101;28;20808;-70
2023/02/21 04:27:05;;;;;;;2.07;0.97;;;4.10;1.00;;;;;;5052485;28;20504;-71
2023/02/21 04:29:32;;;;;;;1.83;0.93;;;3.80;1.00;;;;;;5052343;28;20457;-70
2023/02/21 04:32:01;;;;;;;1.60;0.97;;;3.90;1.00;;;;;;5052322;28;20458;-70
2023/02/21 04:34:29;;;;;;;2.40;1.40;;;3.90;99.90;;;;;;5039611;28;20452;-70
2023/02/21 04:36:55;;;;;;;1.83;1.67;;;4.00;1.00;;;;;;5052010;28;20465;-71
2023/02/21 04:39:22;;;;;;;1.00;0.80;;;3.80;1.00;;;;;;5052102;28;20537;-70
2023/02/21 04:41:49;;;;;;;1.57;1.23;;;3.80;1.00;;;;;;5051957;28;20473;-71
2023/02/21 04:44:17;;;;;;;2.83;1.90;;;3.60;1.00;;;;;;5052797;28;20444;-70
2023/02/21 04:46:43;;;;;;;1.10;0.70;;;3.40;75.50;;;;;;5051592;28;20466;-71
2023/02/21 04:49:13;;;;;;;3.10;2.10;;;3.70;99.90;;;;;;5052389;28;20816;-71
2023/02/21 04:51:40;;;;;;;1.60;0.70;;;3.60;1.00;;;;;;5052345;28;20927;-71
2023/02/21 04:54:07;;;;;;;1.50;1.03;;;3.60;99.90;;;;;;5052760;28;20446;-71
2023/02/21 04:56:34;;;;;;;1.30;1.10;;;3.60;1.00;;;;;;5052581;28;20451;-71
2023/02/21 04:59:01;;;;;;;1.40;1.10;;;3.70;99.90;;;;;;5051310;28;20861;-70
2023/02/21 05:01:29;;;;;;;2.10;0.93;;;3.60;99.90;;;;;;5052024;28;20444;-69
2023/02/21 05:03:56;;;;;;;1.33;1.20;;;3.80;1.00;;;;;;5051115;28;20443;-71
2023/02/21 05:06:26;;;;;;;2.13;1.00;;;3.90;1.00;;;;;;5051221;28;20488;-70
2023/02/21 05:08:53;;;;;;;1.03;0.93;;;4.00;99.90;;;;;;5050376;28;20470;-71
2023/02/21 05:11:21;;;;;;;2.30;1.17;;;4.10;1.00;;;;;;5051629;28;20465;-71
2023/02/21 05:13:48;;;;;;;1.83;1.57;;;4.20;99.90;;;;;;5050843;28;20448;-70
2023/02/21 05:16:15;;;;;;;1.77;1.03;;;4.10;99.90;;;;;;5051623;28;20458;-70
2023/02/21 05:18:42;;;;;;;1.93;1.20;;;3.60;38.20;;;;;;5051085;28;20831;-71
2023/02/21 05:21:09;;;;;;;1.80;0.87;;;3.60;1.00;;;;;;5052026;28;20812;-71
2023/02/21 05:23:41;;;;;;;1.90;1.53;;;3.70;99.90;;;;;;5051520;28;20452;-70
2023/02/21 05:26:10;;;;;;;1.93;0.90;;;3.80;99.90;;;;;;5051110;28;20501;-71
2023/02/21 05:28:37;;;;;;;3.80;1.70;;;3.60;99.90;;;;;;5051627;28;20469;-71
2023/02/21 05:31:04;;;;;;;3.17;1.50;;;3.60;1.00;;;;;;5050934;28;20777;-71
2023/02/21 05:33:31;;;;;;;1.90;1.33;;;3.70;99.90;;;;;;5015270;28;20459;-71
2023/02/21 05:35:58;;;;;;;6.13;1.43;;;3.60;1.00;;;;;;5050952;28;20446;-71
2023/02/21 05:38:26;;;;;;;1.37;1.00;;;3.50;99.90;;;;;;5051159;28;20458;-69
2023/02/21 05:40:54;;;;;;;2.50;1.57;;;3.50;99.90;;;;;;5050949;28;20514;-69
2023/02/21 05:43:21;;;;;;;1.93;1.53;;;3.30;1.00;;;;;;5051135;28;20458;-70
2023/02/21 05:45:48;;;;;;;2.10;1.07;;;3.40;99.90;;;;;;5050545;28;20450;-69
2023/02/21 05:48:15;;;;;;;1.07;0.87;;;3.40;5.30;;;;;;5050801;28;20446;-72
2023/02/21 05:50:43;;;;;;;1.90;1.20;;;3.50;99.90;;;;;;5050409;28;20469;-71
2023/02/21 05:53:10;;;;;;;2.43;1.10;;;3.60;99.90;;;;;;5051595;28;20508;-72
2023/02/21 05:55:37;;;;;;;3.37;1.80;;;3.50;1.00;;;;;;5051568;28;20451;-70
2023/02/21 05:58:06;;;;;;;1.27;1.17;;;3.50;99.90;;;;;;5050628;28;20445;-67
2023/02/21 06:00:33;;;;;;;1.03;0.83;;;3.50;99.90;;;;;;5040043;28;20911;-67
2023/02/21 06:02:59;;;;;;;1.77;1.23;;;3.50;99.90;;;;;;5050827;28;20551;-67
2023/02/21 06:05:26;;;;;;;3.70;1.33;;;3.50;99.90;;;;;;5051631;28;20450;-68
2023/02/21 06:07:53;;;;;;;1.60;1.40;;;3.50;99.90;;;;;;5050852;28;20504;-69
2023/02/21 06:10:20;;;;;;;2.07;1.30;;;3.30;1.00;;;;;;5011485;28;20447;-69
2023/02/21 06:12:47;;;;;;;2.60;1.23;;;3.20;1.00;;;;;;5010834;28;20448;-69
2023/02/21 06:15:15;;;;;;;2.37;1.57;;;3.30;1.00;;;;;;5011320;28;20448;-66
2023/02/21 06:17:43;;;;;;;1.20;1.00;;;3.50;1.00;;;;;;5009617;28;20472;-68
2023/02/21 06:20:13;;;;;;;2.90;1.23;;;3.40;1.00;;;;;;5011396;28;20476;-69
2023/02/21 06:22:40;;;;;;;1.57;1.00;;;3.30;1.00;;;;;;5011213;28;20475;-69
2023/02/21 06:25:08;;;;;;;1.27;0.87;;;3.30;2.60;;;;;;5011349;28;20458;-69
2023/02/21 06:27:35;;;;;;;1.27;1.07;;;3.30;99.90;;;;;;5010859;28;20848;-69
2023/02/21 06:30:02;;;;;;;4.93;1.30;;;3.30;67.90;;;;;;5010818;28;20455;-69
2023/02/21 06:32:30;;;;;;;2.57;1.70;;;3.30;99.90;;;;;;5011446;28;20464;-69
2023/02/21 06:34:57;;;;;;;1.20;1.07;;;3.40;95.20;;;;;;5010963;28;20463;-69
2023/02/21 06:37:24;;;;;;;2.10;1.27;;;3.40;1.00;;;;;;5011005;28;20484;-69
2023/02/21 06:39:50;;;;;;;7.37;1.70;;;3.40;12.00;;;;;;5010965;28;20459;-69
2023/02/21 06:42:18;;;;;;;5.43;1.30;;;3.40;99.90;;;;;;5011015;28;20526;-69
2023/02/21 06:44:46;;;;;;;2.97;1.97;;;3.40;99.90;;;;;;5010336;28;20459;-69
2023/02/21 06:47:13;;;;;;;3.80;1.37;;;3.50;70.00;;;;;;5010721;28;20502;-68
2023/02/21 06:49:41;;;;;;;3.33;2.27;;;4.00;1.00;;;;;;5011626;28;20459;-69
2023/02/21 06:52:09;;;;;;;3.97;1.47;;;4.30;52.90;;;;;;5011293;28;20464;-70
2023/02/21 06:54:36;;;;;;;3.20;1.53;;;4.30;1.00;;;;;;5011214;28;20883;-69
2023/02/21 06:57:04;;;;;;;1.87;1.33;;;4.30;1.00;;;;;;5013166;28;20999;-69
2023/02/21 06:59:31;;;;;;;2.00;0.90;;;4.50;1.00;;;;;;5015308;28;20469;-69
2023/02/21 07:01:58;;;;;;;1.83;1.10;;;4.50;99.90;;;;;;5001179;28;20547;-69
2023/02/21 07:04:25;;;;;;;3.03;1.50;;;4.40;1.00;;;;;;5014950;28;20454;-68
2023/02/21 07:06:53;;;;;;;1.30;1.20;;;4.30;98.90;;;;;;5013924;28;20985;-69
2023/02/21 07:09:20;;;;;;;2.40;1.50;;;3.90;1.00;;;;;;5038451;28;20482;-69
2023/02/21 07:11:47;;;;;;;1.77;1.20;;;3.90;99.90;;;;;;5054471;28;20525;-69
2023/02/21 07:14:14;;;;;;;2.13;2.03;;;4.00;7.70;;;;;;5054616;28;20455;-69
2023/02/21 07:16:41;;;;;;;1.73;1.30;;;4.20;99.90;;;;;;5054252;28;20450;-69
2023/02/21 07:19:08;;;;;;;1.50;1.13;;;4.30;99.90;;;;;;5054715;28;20461;-69
2023/02/21 07:21:35;;;;;;;1.33;1.23;;;4.10;1.00;;;;;;5054621;28;20475;-70
2023/02/21 07:24:03;;;;;;;2.30;1.30;;;3.90;99.90;;;;;;5053888;28;20474;-69
2023/02/21 07:26:30;;;;;;;10.13;2.60;;;3.80;99.90;;;;;;5054046;28;20492;-69
2023/02/21 07:28:57;;;;;;;2.30;1.43;;;3.80;1.00;;;;;;5053733;28;20453;-69
2023/02/21 07:31:24;;;;;;;1.23;1.07;;;3.90;1.00;;;;;;5054402;28;20564;-69
2023/02/21 07:33:50;;;;;;;2.13;1.50;;;4.00;99.90;;;;;;5053827;28;20453;-69
2023/02/21 07:36:18;;;;;;;1.60;1.50;;;4.30;99.90;;;;;;5053822;28;20820;-69
2023/02/21 07:38:44;;;;;;;5.00;1.90;;;4.20;61.60;;;;;;5053754;28;20459;-68
2023/02/21 07:41:15;;;;;;;9.97;2.50;;;4.50;99.90;;;;;;5054025;28;20451;-69
2023/02/21 07:43:42;;;;;;;2.33;1.57;;;4.80;1.00;;;;;;5053430;28;20452;-66
2023/02/21 07:46:11;;;;;;;1.70;1.57;;;4.90;1.00;;;;;;5053678;28;20446;-69
2023/02/21 07:48:37;;;;;;;4.43;1.67;;;4.90;99.90;;;;;;5053863;28;20489;-68
2023/02/21 07:51:06;;;;;;;4.27;1.83;;;5.10;1.00;;;;;;5053465;28;20441;-69
2023/02/21 07:53:33;;;;;;;2.57;1.63;;;5.20;1.00;;;;;;5053826;28;20450;-68
2023/02/21 07:55:59;;;;;;;3.70;2.07;;;5.30;1.00;;;;;;5052837;28;20962;-68
2023/02/21 07:58:28;;;;;;;1.73;1.40;;;;;;;;;;5053749;28;20450;-69
2023/02/21 08:00:55;;;;;;;2.77;2.17;;;;;;;;;;5053376;28;20468;-68
2023/02/21 08:03:22;;;;;;;2.07;1.80;;;;;;;;;;5053700;28;20864;-69
2023/02/21 08:05:49;;;;;;;1.70;1.20;;;;;;;;;;5052478;28;20446;-71
2023/02/21 08:08:16;;;;;;;2.67;1.63;;;;;;;;;;5052645;28;20505;-69
2023/02/21 08:10:44;;;;;;;2.93;2.27;;;;;;;;;;5053267;28;20450;-68
2023/02/21 08:13:11;;;;;;;2.37;1.57;;;;;;;;;;5053502;28;20450;-68
2023/02/21 08:15:39;;;;;;;2.43;1.73;;;;;;;;;;5053323;28;20469;-69
2023/02/21 08:18:06;;;;;;;4.30;2.33;;;;;;;;;;5052648;28;20454;-68
2023/02/21 08:20:34;;;;;;;4.80;2.47;;;;;;;;;;5053253;28;20956;-69
2023/02/21 08:23:01;;;;;;;4.20;1.73;;;;;;;;;;5052967;28;20446;-69
2023/02/21 08:25:27;;;;;;;3.57;1.70;;;5.40;99.90;;;;;;5052854;28;20450;-69
2023/02/21 08:27:54;;;;;;;3.17;2.50;;;6.40;99.90;;;;;;5052772;28;20513;-69
2023/02/21 08:30:21;;;;;;;4.07;2.17;;;6.70;1.00;;;;;;5053064;28;20447;-69
2023/02/21 08:32:50;;;;;;;4.03;2.00;;;6.70;99.90;;;;;;5052891;28;20439;-69
2023/02/21 08:35:18;;;;;;;3.00;2.00;;;6.80;99.90;;;;;;5052467;28;20454;-68
2023/02/21 08:37:46;;;;;;;9.93;3.87;;;6.90;99.90;;;;;;5052472;28;20481;-68
2023/02/21 08:40:14;;;;;;;4.00;2.20;;;7.00;25.60;;;;;;5052989;28;20462;-69
2023/02/21 08:42:41;;;;;;;2.30;2.10;;;7.10;1.00;;;;;;5053291;28;20447;-69
2023/02/21 08:45:11;;;;;;;8.03;2.97;;;7.20;1.00;;;;;;5052417;28;20447;-68
2023/02/21 08:47:38;;;;;;;4.17;2.57;;;7.30;1.00;;;;;;5052921;28;21014;-69
2023/02/21 08:50:07;;;;;;;4.27;2.73;;;;;;;;;;5052409;28;20450;-68
2023/02/21 08:52:34;;;;;;;6.40;2.83;;;;;;;;;;5052860;28;20446;-69
2023/02/21 08:55:01;;;;;;;4.43;2.90;;;;;;;;;;5052272;28;20730;-68
2023/02/21 08:57:28;;;;;;;4.87;3.10;;;;;;;;;;5052193;28;20927;-68
2023/02/21 08:59:55;;;;;;;4.60;3.03;;;;;;;;;;5052051;28;20439;-68
2023/02/21 09:02:25;;;;;;;4.87;3.50;;;;;;;;;;5052424;28;20464;-69
2023/02/21 09:04:52;;;;;;;5.03;3.27;;;;;;;;;;5052021;28;20489;-68
2023/02/21 09:07:22;;;;;;;4.47;2.80;;;;;;;;;;5051782;28;20982;-68
2023/02/21 09:09:49;;;;;;;6.03;3.23;;;;;;;;;;5051610;28;20480;-69
2023/02/21 09:12:17;;;;;;;4.37;3.40;;;;;;;;;;5052605;28;20450;-69
2023/02/21 09:14:44;;;;;;;4.20;2.60;;;;;;;;;;5051507;28;20829;-68
2023/02/21 09:17:12;;;;;;;8.73;3.50;;;;;;;;;;5052103;28;20445;-68
2023/02/21 09:19:40;;;;;;;4.73;3.20;;;;;;;;;;5051709;28;20446;-69
2023/02/21 09:22:07;;;;;;;4.23;3.30;;;;;;;;;;5052317;28;20457;-69
2023/02/21 09:24:35;;;;;;;4.50;3.50;;;;;;;;;;5052311;28;20454;-68
2023/02/21 09:27:03;;;;;;;6.40;3.43;;;;;;;;;;5051404;28;20450;-69
2023/02/21 09:29:33;;;;;;;7.13;4.43;;;;;;;;;;5051624;28;20450;-69
2023/02/21 09:32:01;;;;;;;4.13;3.63;;;;;;;;;;5051694;28;20492;-68
2023/02/21 09:34:28;;;;;;;7.07;2.70;;;;;;;;;;5052106;28;20446;-68
2023/02/21 09:36:55;;;;;;;4.40;2.90;;;;;;;;;;5050999;28;20465;-68
2023/02/21 09:39:22;;;;;;;4.80;3.07;;;;;;;;;;5052104;28;20517;-68
2023/02/21 09:41:54;;;;;;;5.00;3.10;;;;;;;;;;5051044;28;20944;-68
2023/02/21 09:44:24;;;;;;;3.10;2.33;;;;;;;;;;5051915;28;20442;-69
2023/02/21 09:46:53;;;;;;;5.97;2.80;;;;;;;;;;5051232;28;20451;-69
2023/02/21 09:49:22;;;;;;;5.23;3.43;;;;;;;;;;5051764;28;20496;-69
2023/02/21 09:51:49;;;;;;;4.23;2.73;;;;;;;;;;5050897;28;20447;-69
2023/02/21 09:54:20;;;;;;;3.73;3.17;;;;;;;;;;5051763;28;20446;-68
2023/02/21 09:56:47;;;;;;;8.80;3.60;;;;;;;;;;5050737;28;20446;-69
2023/02/21 09:59:16;;;;;;;3.73;2.90;;;;;;;;;;5051249;28;20998;-69
2023/02/21 10:01:50;;;;;;;3.60;3.00;;;;;;;;;;5050914;28;20453;-69
2023/02/21 10:04:22;;;;;;;4.80;3.43;;;;;;;;;;5051652;28;20446;-69
2023/02/21 10:06:51;;;;;;;5.77;3.87;;;;;;;;;;5050627;28;20516;-69
2023/02/21 10:09:24;;;;;;;5.93;2.70;;;;;;;;;;5051282;28;20508;-69
2023/02/21 10:11:59;;;;;;;5.87;3.70;;;;;;;;;;5051012;28;20449;-69
2023/02/21 10:14:31;;;;;;;15.93;3.50;;;;;;;;;;5050952;28;20448;-69
2023/02/21 10:17:03;;;;;;;4.00;2.77;;;;;;;;;;5050709;28;21026;-70
2023/02/21 10:19:32;;;;;;;4.23;2.90;;;;;;;;;;5051705;28;20496;-70
2023/02/21 10:22:01;;;;;;;4.40;3.00;;;;;;;;;;5050917;28;20451;-70
2023/02/21 10:24:28;;;;;;;5.37;2.47;;;;;;;;;;5050937;28;20974;-69
2023/02/21 10:26:59;;;;;;;5.13;3.13;;;;;;;;;;5050026;28;20461;-69
2023/02/21 10:29:35;;;;;;;5.13;2.70;;;;;;;;;;5050804;28;20482;-70
2023/02/21 10:32:03;;;;;;;4.13;2.50;;;;;;;;;;5050603;28;20461;-70
2023/02/21 10:34:31;;;;;;;4.63;2.43;;;;;;;;;;5051292;28;20454;-70
2023/02/21 10:37:03;;;;;;;7.63;2.70;;;;;;;;;;5050025;28;20791;-70
2023/02/21 10:39:35;;;;;;;3.30;2.30;;;;;;;;;;5051361;28;20529;-71
2023/02/21 10:42:02;;;;;;;4.43;4.03;;;;;;;;;;5051132;28;20853;-70
2023/02/21 10:44:32;;;;;;;3.30;2.60;;;;;;;;;;5051191;28;20455;-70
2023/02/21 10:47:02;;;;;;;2.60;2.10;;;;;;;;;;5051041;28;20455;-70
2023/02/21 10:49:31;;;;;;;8.63;2.67;;;;;;;;;;5054284;28;20490;-70
2023/02/21 10:52:06;;;;;;;2.60;2.07;;;;;;;;;;5055821;28;20455;-70
2023/02/21 10:54:33;;;;;;;4.17;2.53;;;;;;;;;;5057693;28;20473;-71
2023/02/21 10:57:01;;;;;;;3.00;2.20;;;;;;;;;;5057631;28;20443;-71
2023/02/21 10:59:29;;;;;;;3.57;2.37;;;;;;;;;;5059215;28;20449;-70
2023/02/21 11:01:58;;;;;;;1.80;1.57;;;;;;;;;;5059890;28;20434;-70
2023/02/21 11:04:27;;;;;;;5.80;2.37;;;;;;;;;;5060644;28;20446;-71
2023/02/21 11:06:55;;;;;;;3.37;2.00;;;;;;;;;;5059703;28;20761;-70
2023/02/21 11:09:31;;;;;;;3.10;2.27;;;;;;;;;;5061307;28;20498;-70
2023/02/21 11:12:03;;;;;;;2.20;2.00;;;;;;;;;;5060313;28;20438;-70
2023/02/21 11:14:32;;;;;;;4.03;2.57;;;;;;;;;;5060611;28;20502;-70
2023/02/21 11:17:23;;;;;;;3.20;2.50;;;;;;;;;;5059893;28;20473;-70
2023/02/21 11:19:53;;;;;;;3.53;2.73;;;;;;;;;;5044068;28;20450;-71
2023/02/21 11:22:22;;;;;;;2.17;1.57;;;;;;;;;;5050863;28;20439;-70
2023/02/21 11:24:56;;;;;;;2.20;2.00;;;;;;;;;;5050181;28;20932;-70
2023/02/21 11:27:23;;;;;;;3.90;2.70;;;;;;;;;;5050786;28;20458;-70
2023/02/21 11:29:52;;;;;;;3.33;1.83;;;;;;;;;;5049926;28;20516;-72
2023/02/21 11:32:25;;;;;;;7.10;2.57;;;;;;;;;;5050718;28;20450;-70
2023/02/21 11:35:00;;;;;;;3.57;2.30;;;;;;;;;;5049634;28;20442;-70
2023/02/21 11:37:28;;;;;;;4.40;2.40;;;;;;;;;;5050098;28;20453;-70
2023/02/21 11:39:56;;;;;;;3.33;2.17;;;;;;;;;;5050052;28;20446;-70
2023/02/21 11:42:28;;;;;;;2.40;1.90;;;;;;;;;;5051944;28;20561;-70
2023/02/21 11:45:14;;;;;;;3.03;2.07;;;;;;;;;;5052767;28;20935;-70
2023/02/21 11:47:45;;;;;;;3.10;1.80;;;;;;;;;;5054263;28;20857;-70
2023/02/21 11:50:16;;;;;;;3.43;1.87;;;;;;;;;;5053796;28;20487;-70
2023/02/21 11:52:46;;;;;;;1.83;1.50;;;;;;;;;;5053294;28;20442;-70
2023/02/21 11:55:15;;;;;;;4.73;2.40;;;;;;;;;;5053564;28;20453;-70
2023/02/21 11:57:45;;;;;;;4.37;2.90;;;;;;;;;;5053808;28;20458;-67
2023/02/21 12:00:16;;;;;;;3.87;2.07;;;;;;;;;;5053833;28;20822;-70
2023/02/21 12:02:58;;;;;;;3.53;2.47;;;;;;;;;;5053135;28;21197;-70
2023/02/21 12:05:36;;;;;;;3.50;2.03;;;;;;;;;;5053553;28;20446;-71
2023/02/21 12:08:20;;;;;;;2.93;2.20;;;;;;;;;;5053017;28;21127;-70
2023/02/21 12:10:52;;;;;;;5.50;2.30;;;;;;;;;;5053304;28;20446;-71
2023/02/21 12:13:25;;;;;;;2.83;2.27;;;;;;;;;;5053900;28;20468;-71
2023/02/21 12:15:57;;;;;;;4.10;1.80;;;;;;;;;;5052650;28;20446;-70
2023/02/21 12:18:31;;;;;;;4.53;2.17;;;;;;;;;;5053784;28;20465;-70
2023/02/21 12:21:11;;;;;;;2.27;1.60;;;;;;;;;;5052740;28;20935;-70
2023/02/21 12:23:45;;;;;;;2.20;1.67;;;;;;;;;;5053695;28;20813;-71
2023/02/21 12:26:19;;;;;;;1.83;1.40;;;;;;;;;;5053010;28;20454;-70
2023/02/21 12:29:02;;;;;;;1.83;1.30;;;;;;;;;;5052529;28;20476;-70
2023/02/21 12:31:33;;;;;;;3.10;1.40;;;;;;;;;;5052954;28;20803;-70
2023/02/21 12:34:06;;;;;;;4.53;1.80;;;;;;;;;;5052760;28;20453;-70
2023/02/21 12:36:44;;;;;;;1.40;1.23;;;;;;;;;;5052908;28;20462;-70
2023/02/21 12:39:21;;;;;;;1.57;1.20;;;;;;;;;;5053413;28;20438;-70
2023/02/21 12:41:58;;;;;;;3.07;2.00;;;;;;;;;;5052333;28;20947;-70
2023/02/21 12:44:28;;;;;;;2.10;1.57;;;;;;;;;;5052894;28;20522;-70
2023/02/21 12:46:58;;;;;;;2.30;1.87;;;;;;;;;;5052098;28;20443;-70
2023/02/21 12:49:27;;;;;;;3.03;1.50;;;;;;;;;;5052721;28;21040;-70
2023/02/21 12:51:59;;;;;;;1.70;1.30;;;;;;;;;;5052013;28;20503;-70
2023/02/21 12:54:32;;;;;;;2.93;1.23;;;;;;;;;;5053024;28;20449;-70
2023/02/21 12:57:01;;;;;;;3.77;1.30;;;;;;;;;;5052006;28;20439;-70
2023/02/21 12:59:31;;;;;;;2.90;1.60;;;;;;;;;;5052432;28;20491;-70
2023/02/21 13:02:01;;;;;;;1.57;1.20;;;;;;;;;;5039322;28;20458;-70
2023/02/21 13:04:33;;;;;;;1.07;0.83;;;;;;;;;;5052908;28;20458;-70
2023/02/21 13:07:03;;;;;;;1.30;1.20;;;;;;;;;;5051691;28;20488;-70
2023/02/21 13:09:33;;;;;;;3.20;1.20;;;;;;;;;;5052485;28;20494;-71
2023/02/21 13:12:04;;;;;;;3.60;1.30;;;;;;;;;;5051721;28;20450;-70
2023/02/21 13:14:33;;;;;;;1.87;0.90;;;;;;;;;;5052341;28;20458;-70
2023/02/21 13:17:00;;;;;;;2.03;1.20;;;;;;;;;;5051314;28;20450;-71
2023/02/21 13:19:32;;;;;;;4.70;1.50;;;;;;;;;;5052244;28;20451;-70
2023/02/21 13:24:58;;;;;;;1.80;1.40;;;;;;;;;;5048971;28;20423;-71
2023/02/21 13:27:44;;;;;;;2.07;1.23;;;;;;;;;;5052119;28;20806;-71
2023/02/21 13:30:15;;;;;;;1.80;1.13;;;;;;;;;;5052098;28;20568;-70
2023/02/21 13:32:51;;;;;;;1.63;1.30;;;;;;;;;;5051694;28;20486;-67
2023/02/21 13:35:21;;;;;;;2.63;0.83;;;;;;;;;;5051499;28;20931;-71
2023/02/21 13:37:51;;;;;;;1.63;1.00;;;;;;;;;;5051266;28;20457;-71
2023/02/21 13:40:22;;;;;;;1.00;0.90;;;;;;;;;;5052167;28;20446;-69
2023/02/21 13:42:49;;;;;;;2.13;1.00;;;;;;;;;;5051307;28;20464;-69
2023/02/21 13:45:17;;;;;;;1.53;0.80;;;;;;;;;;5051409;28;20451;-69
2023/02/21 13:48:03;;;;;;;0.73;0.70;;;;;;;;;;5051122;28;20456;-69
2023/02/21 13:50:46;;;;;;;4.30;3.03;;;;;;;;;;5051489;28;20482;-69
2023/02/21 13:53:17;;;;;;;1.90;1.13;;;;;;;;;;5051498;28;20446;-68
2023/02/21 13:56:13;;;;;;;2.87;1.10;;;7.40;1.00;;;;;;5050819;28;20449;-71
2023/02/21 13:58:43;;;;;;;1.10;0.90;;;18.80;1.00;;;;;;5051787;28;20564;-69
2023/02/21 14:01:29;;;;;;;1.20;1.00;;;18.60;1.00;;;;;;5051677;28;20461;-69
2023/02/21 14:03:57;;;;;;;3.63;1.33;;;18.80;1.00;;;;;;5040502;28;20458;-69
2023/02/21 14:06:36;;;;;;;2.07;1.07;;;18.70;1.00;;;;;;5050713;28;20512;-69
2023/02/21 14:09:17;;;;;;;1.60;1.10;;;19.00;1.00;;;;;;5050955;28;20503;-70
2023/02/21 14:11:48;;;;;;;1.00;0.70;;;19.10;1.00;;;;;;5050890;28;20446;-69
2023/02/21 14:14:30;;;;;;;1.20;1.10;;;18.70;1.00;;;;;;5051414;28;20506;-71
2023/02/21 14:17:02;;;;;;;1.70;0.60;;;18.40;1.00;;;;;;5050606;28;20450;-71
2023/02/21 14:19:35;;;;;;;3.83;1.70;;;18.40;1.00;;;;;;5051233;28;20454;-69
2023/02/21 14:22:09;;;;;;;1.00;0.60;;;18.50;1.00;;;;;;5050911;28;20450;-72
2023/02/21 14:24:39;;;;;;;1.60;0.83;;;19.00;1.00;;;;;;5050855;28;20442;-71
2023/02/21 14:27:37;;;;;;;2.40;1.60;;;18.70;1.00;;;;;;5051070;28;20504;-71
2023/02/21 14:30:28;;;;;;;3.33;1.10;;;18.70;1.00;;;;;;5050141;28;20494;-71
2023/02/21 14:33:02;;;;;;;1.03;0.77;;;18.80;1.00;;;;;;5050410;28;20447;-71
2023/02/21 14:35:34;;;;;;;0.90;0.80;;;18.70;1.00;;;;;;5050305;28;20439;-71
2023/02/21 14:38:03;;;;;;;2.70;0.90;;;18.70;1.00;;;;;;5050217;28;20837;-71
2023/02/21 14:40:46;;;;;;;0.70;0.70;;;18.60;1.00;;;;;;5051044;28;20469;-71
2023/02/21 14:43:46;;;;;;;1.87;0.90;;;18.50;1.00;;;;;;5050840;28;20450;-71
2023/02/21 14:46:39;;;;;;;1.73;1.07;;;18.50;1.00;;;;;;5050586;28;20457;-71
2023/02/21 14:49:40;;;;;;;1.20;1.10;;;18.60;1.00;;;;;;5050696;28;20501;-71
2023/02/21 14:52:42;;;;;;;4.13;1.30;;;18.70;1.00;;;;;;5050891;28;20454;-71
2023/02/21 14:55:44;;;;;;;3.27;1.43;;;18.70;1.00;;;;;;5050637;28;20480;-71
2023/02/21 14:58:54;;;;;;;2.13;1.77;;;18.30;1.00;;;;;;5040072;28;20462;-71
2023/02/21 15:01:40;;;;;;;3.30;1.93;;;18.50;1.00;;;;;;5050765;28;20438;-69
2023/02/21 15:04:15;;;;;;;2.20;1.17;;;18.50;1.00;;;;;;5051025;28;20446;-69
2023/02/21 15:06:46;;;;;;;1.30;1.00;;;18.80;1.00;;;;;;5049840;28;20460;-66
2023/02/21 15:09:18;;;;;;;2.57;1.17;;;18.80;1.00;;;;;;5050713;28;20501;-71
2023/02/21 15:11:48;;;;;;;1.23;0.90;;;18.70;1.00;;;;;;5050323;28;20789;-71
2023/02/21 15:14:21;;;;;;;2.53;1.90;;;18.80;1.00;;;;;;5050429;28;20450;-71
2023/02/21 15:16:51;;;;;;;1.10;0.90;;;18.70;1.00;;;;;;5050730;28;20445;-69
2023/02/21 15:19:28;;;;;;;3.70;1.03;;;18.90;1.00;;;;;;5054716;28;20804;-69
2023/02/21 15:22:16;;;;;;;2.83;1.07;;;20.00;1.00;;;;;;5054210;28;20442;-72
2023/02/21 15:24:57;;;;;;;1.30;1.10;;;19.30;1.00;;;;;;5053985;28;20540;-72
2023/02/21 15:27:26;;;;;;;2.10;1.60;;;19.10;1.00;;;;;;5054697;28;20456;-70
2023/02/21 15:30:05;;;;;;;2.40;1.20;;;19.10;1.00;;;;;;5053890;28;20485;-69
2023/02/21 15:32:34;;;;;;;1.20;1.00;;;19.30;1.00;;;;;;5054254;28;21052;-70
2023/02/21 15:35:04;;;;;;;4.07;1.80;;;20.50;1.00;;;;;;5053633;28;20746;-71
2023/02/21 15:37:33;;;;;;;1.80;1.03;;;22.20;1.00;;;;;;5054024;28;20466;-71
2023/02/21 15:40:10;;;;;;;6.27;1.57;;;22.70;1.00;;;;;;5053921;28;20891;-71
2023/02/21 15:42:40;;;;;;;2.93;1.40;;;23.20;1.00;;;;;;5054620;28;20445;-71
2023/02/21 15:45:11;;;;;;;1.70;1.20;;;23.70;1.00;;;;;;5053810;28;20529;-71
2023/02/21 15:47:38;;;;;;;2.13;1.20;;;23.60;1.00;;;;;;5054282;28;20935;-71
2023/02/21 15:50:10;;;;;;;3.87;1.43;;;23.70;1.00;;;;;;5053662;28;20501;-71
2023/02/21 15:52:40;;;;;;;2.23;1.07;;;23.80;1.00;;;;;;5054373;28;20781;-71
2023/02/21 15:55:15;;;;;;;2.40;1.17;;;23.70;1.00;;;;;;5053604;28;20453;-72
2023/02/21 15:57:44;;;;;;;1.00;0.90;;;22.80;1.00;;;;;;5057026;28;20449;-68
2023/02/21 16:00:25;;;;;;;1.07;0.97;;;23.10;1.00;;;;;;5053758;28;20450;-71
2023/02/21 16:02:53;;;;;;;1.57;1.07;;;22.30;1.00;;;;;;5049220;28;20845;-70
2023/02/21 16:05:25;;;;;;;1.73;0.93;;;21.60;1.00;;;;;;5053393;28;20434;-71
2023/02/21 16:07:53;;;;;;;2.60;1.20;;;21.40;1.00;;;;;;5052314;28;20454;-70
2023/02/21 16:10:23;;;;;;;2.33;1.33;;;21.10;1.00;;;;;;5053550;28;20478;-70
2023/02/21 16:12:58;;;;;;;1.60;0.90;;;21.00;1.00;;;;;;5052936;28;20448;-70
2023/02/21 16:15:28;;;;;;;5.50;1.07;;;20.80;1.00;;;;;;5052430;28;20442;-70
2023/02/21 16:17:58;;;;;;;3.00;1.07;;;19.40;1.00;;;;;;5052434;28;20442;-70